sensor_id;sensor_type;location;lat;lon;timestamp;temperature;humidity
29713;DHT22;16623;53.632;10.016;2023-05-07T00:01:37;9.30;99.90
29713;DHT22;16623;53.632;10.016;2023-05-07T00:04:03;9.20;99.90
29713;DHT22;16623;53.632;10.016;2023-05-07T00:06:29;9.20;99.90
29713;DHT22;16623;53.632;10.016;2023-05-07T00:08:56;9.20;99.90
29713;DHT22;16623;53.632;10.016;2023-05-07T00:11:22;9.10;99.90
29713;DHT22;16623;53.632;10.016;2023-05-07T00:13:47;9.10;99.90
29713;DHT22;16623;53.632;10.016;2023-05-07T00:16:13;9.10;99.90
29713;DHT22;16623;53.632;10.016;2023-05-07T00:18:39;9.10;99.90
29713;DHT22;16623;53.632;10.016;2023-05-07T00:21:04;9.10;99.90
29713;DHT22;16623;53.632;10.016;2023-05-07T00:23:30;9.00;99.90
29713;DHT22;16623;53.632;10.016;2023-05-07T00:25:56;9.10;99.90
29713;DHT22;16623;53.632;10.016;2023-05-07T00:28:21;9.10;99.90
29713;DHT22;16623;53.632;10.016;2023-05-07T00:30:47;10.20;99.90
29713;DHT22;16623;53.632;10.016;2023-05-07T00:33:12;9.30;99.90
29713;DHT22;16623;53.632;10.016;2023-05-07T00:35:38;9.10;99.90
29713;DHT22;16623;53.632;10.016;2023-05-07T00:38:03;9.10;99.90
29713;DHT22;16623;53.632;10.016;2023-05-07T00:40:29;9.10;99.90
29713;DHT22;16623;53.632;10.016;2023-05-07T00:42:55;9.10;99.90
29713;DHT22;16623;53.632;10.016;2023-05-07T00:45:26;9.10;99.90
29713;DHT22;16623;53.632;10.016;2023-05-07T00:47:53;9.10;99.90
29713;DHT22;16623;53.632;10.016;2023-05-07T00:50:19;9.10;99.90
29713;DHT22;16623;53.632;10.016;2023-05-07T00:52:45;9.20;99.90
29713;DHT22;16623;53.632;10.016;2023-05-07T00:55:11;9.10;99.90
29713;DHT22;16623;53.632;10.016;2023-05-07T00:57:40;9.10;99.90
29713;DHT22;16623;53.632;10.016;2023-05-07T01:00:07;9.10;99.90
29713;DHT22;16623;53.632;10.016;2023-05-07T01:02:35;9.20;99.90
29713;DHT22;16623;53.632;10.016;2023-05-07T01:05:02;9.10;99.90
29713;DHT22;16623;53.632;10.016;2023-05-07T01:07:29;9.10;99.90
29713;DHT22;16623;53.632;10.016;2023-05-07T01:09:55;9.10;99.90
29713;DHT22;16623;53.632;10.016;2023-05-07T01:12:21;9.00;99.90
29713;DHT22;16623;53.632;10.016;2023-05-07T01:14:47;9.10;99.90
29713;DHT22;16623;53.632;10.016;2023-05-07T01:17:15;9.00;99.90
29713;DHT22;16623;53.632;10.016;2023-05-07T01:19:41;9.00;99.90
29713;DHT22;16623;53.632;10.016;2023-05-07T01:22:10;8.90;99.90
29713;DHT22;16623;53.632;10.016;2023-05-07T01:24:40;9.00;99.90
29713;DHT22;16623;53.632;10.016;2023-05-07T01:27:06;9.00;99.90
29713;DHT22;16623;53.632;10.016;2023-05-07T01:29:32;9.10;99.90
29713;DHT22;16623;53.632;10.016;2023-05-07T01:31:59;9.00;99.90
29713;DHT22;16623;53.632;10.016;2023-05-07T01:34:26;9.10;99.90
29713;DHT22;16623;53.632;10.016;2023-05-07T01:36:56;11.00;99.90
29713;DHT22;16623;53.632;10.016;2023-05-07T01:39:28;9.00;99.90
29713;DHT22;16623;53.632;10.016;2023-05-07T01:41:57;9.00;99.90
29713;DHT22;16623;53.632;10.016;2023-05-07T01:44:24;9.00;99.90
29713;DHT22;16623;53.632;10.016;2023-05-07T01:46:51;9.00;99.90
29713;DHT22;16623;53.632;10.016;2023-05-07T01:49:17;9.00;99.90
29713;DHT22;16623;53.632;10.016;2023-05-07T01:51:43;8.90;99.90
29713;DHT22;16623;53.632;10.016;2023-05-07T01:54:09;9.50;99.90
29713;DHT22;16623;53.632;10.016;2023-05-07T01:56:35;9.90;99.90
29713;DHT22;16623;53.632;10.016;2023-05-07T01:59:01;8.90;99.90
29713;DHT22;16623;53.632;10.016;2023-05-07T02:01:27;9.00;99.90
29713;DHT22;16623;53.632;10.016;2023-05-07T02:03:53;9.00;99.90
29713;DHT22;16623;53.632;10.016;2023-05-07T02:06:19;9.00;99.90
29713;DHT22;16623;53.632;10.016;2023-05-07T02:08:45;10.80;99.90
29713;DHT22;16623;53.632;10.016;2023-05-07T02:11:11;9.00;99.90
29713;DHT22;16623;53.632;10.016;2023-05-07T02:13:36;9.00;99.90
29713;DHT22;16623;53.632;10.016;2023-05-07T02:16:02;9.00;99.90
29713;DHT22;16623;53.632;10.016;2023-05-07T02:18:28;9.10;99.90
29713;DHT22;16623;53.632;10.016;2023-05-07T02:20:54;9.00;99.90
29713;DHT22;16623;53.632;10.016;2023-05-07T02:23:19;9.00;99.90
29713;DHT22;16623;53.632;10.016;2023-05-07T02:25:45;9.00;99.90
29713;DHT22;16623;53.632;10.016;2023-05-07T02:28:11;9.10;99.90
29713;DHT22;16623;53.632;10.016;2023-05-07T02:30:43;9.00;99.90
29713;DHT22;16623;53.632;10.016;2023-05-07T02:33:08;9.00;99.90
29713;DHT22;16623;53.632;10.016;2023-05-07T02:35:34;9.00;99.90
29713;DHT22;16623;53.632;10.016;2023-05-07T02:37:59;9.00;99.90
29713;DHT22;16623;53.632;10.016;2023-05-07T02:40:25;9.00;99.90
29713;DHT22;16623;53.632;10.016;2023-05-07T02:42:51;8.90;99.90
29713;DHT22;16623;53.632;10.016;2023-05-07T02:45:16;8.90;99.90
29713;DHT22;16623;53.632;10.016;2023-05-07T02:47:42;8.90;99.90
29713;DHT22;16623;53.632;10.016;2023-05-07T02:50:07;9.00;99.90
29713;DHT22;16623;53.632;10.016;2023-05-07T02:52:33;8.90;99.90
29713;DHT22;16623;53.632;10.016;2023-05-07T02:54:58;9.00;99.90
29713;DHT22;16623;53.632;10.016;2023-05-07T02:57:24;9.00;99.90
29713;DHT22;16623;53.632;10.016;2023-05-07T02:59:49;9.00;99.90
29713;DHT22;16623;53.632;10.016;2023-05-07T03:02:16;9.10;99.90
29713;DHT22;16623;53.632;10.016;2023-05-07T03:04:41;9.00;99.90
29713;DHT22;16623;53.632;10.016;2023-05-07T03:07:07;9.00;99.90
29713;DHT22;16623;53.632;10.016;2023-05-07T03:09:32;8.90;99.90
29713;DHT22;16623;53.632;10.016;2023-05-07T03:11:58;8.90;99.90
29713;DHT22;16623;53.632;10.016;2023-05-07T03:14:23;8.90;99.90
29713;DHT22;16623;53.632;10.016;2023-05-07T03:16:49;8.90;99.90
29713;DHT22;16623;53.632;10.016;2023-05-07T03:19:15;8.80;99.90
29713;DHT22;16623;53.632;10.016;2023-05-07T03:21:41;8.90;99.90
29713;DHT22;16623;53.632;10.016;2023-05-07T03:24:06;8.90;99.90
29713;DHT22;16623;53.632;10.016;2023-05-07T03:26:32;8.90;99.90
29713;DHT22;16623;53.632;10.016;2023-05-07T03:28:57;9.00;99.90
29713;DHT22;16623;53.632;10.016;2023-05-07T03:31:23;8.80;99.90
29713;DHT22;16623;53.632;10.016;2023-05-07T03:33:54;8.90;99.90
29713;DHT22;16623;53.632;10.016;2023-05-07T03:36:20;8.90;99.90
29713;DHT22;16623;53.632;10.016;2023-05-07T03:38:47;9.00;99.90
29713;DHT22;16623;53.632;10.016;2023-05-07T03:41:12;8.90;99.90
29713;DHT22;16623;53.632;10.016;2023-05-07T03:43:38;9.00;99.90
29713;DHT22;16623;53.632;10.016;2023-05-07T03:46:04;9.00;99.90
29713;DHT22;16623;53.632;10.016;2023-05-07T03:48:29;9.10;99.90
29713;DHT22;16623;53.632;10.016;2023-05-07T03:50:56;9.00;99.90
29713;DHT22;16623;53.632;10.016;2023-05-07T03:53:23;9.00;99.90
29713;DHT22;16623;53.632;10.016;2023-05-07T03:55:48;9.00;99.90
29713;DHT22;16623;53.632;10.016;2023-05-07T03:58:15;11.00;99.90
29713;DHT22;16623;53.632;10.016;2023-05-07T04:00:41;9.10;99.90
29713;DHT22;16623;53.632;10.016;2023-05-07T04:03:06;9.00;99.90
29713;DHT22;16623;53.632;10.016;2023-05-07T04:05:32;9.00;99.90
29713;DHT22;16623;53.632;10.016;2023-05-07T04:07:58;9.10;99.90
29713;DHT22;16623;53.632;10.016;2023-05-07T04:10:29;9.10;99.90
29713;DHT22;16623;53.632;10.016;2023-05-07T04:12:55;9.10;99.90
29713;DHT22;16623;53.632;10.016;2023-05-07T04:15:22;9.10;99.90
29713;DHT22;16623;53.632;10.016;2023-05-07T04:17:48;9.10;99.90
29713;DHT22;16623;53.632;10.016;2023-05-07T04:20:17;9.00;99.90
29713;DHT22;16623;53.632;10.016;2023-05-07T04:22:43;9.00;99.90
29713;DHT22;16623;53.632;10.016;2023-05-07T04:25:09;9.10;99.90
29713;DHT22;16623;53.632;10.016;2023-05-07T04:27:35;9.20;99.90
29713;DHT22;16623;53.632;10.016;2023-05-07T04:30:01;9.20;99.90
29713;DHT22;16623;53.632;10.016;2023-05-07T04:32:28;9.20;99.90
29713;DHT22;16623;53.632;10.016;2023-05-07T04:34:55;9.20;99.90
29713;DHT22;16623;53.632;10.016;2023-05-07T04:37:21;9.20;99.90
29713;DHT22;16623;53.632;10.016;2023-05-07T04:39:47;10.20;99.90
29713;DHT22;16623;53.632;10.016;2023-05-07T04:42:16;9.20;99.90
29713;DHT22;16623;53.632;10.016;2023-05-07T04:44:43;9.30;99.90
29713;DHT22;16623;53.632;10.016;2023-05-07T04:47:09;9.30;99.90
29713;DHT22;16623;53.632;10.016;2023-05-07T04:49:35;9.30;99.90
29713;DHT22;16623;53.632;10.016;2023-05-07T04:52:00;9.20;99.90
29713;DHT22;16623;53.632;10.016;2023-05-07T04:54:26;9.20;99.90
29713;DHT22;16623;53.632;10.016;2023-05-07T04:56:52;9.30;99.90
29713;DHT22;16623;53.632;10.016;2023-05-07T04:59:17;9.20;99.90
29713;DHT22;16623;53.632;10.016;2023-05-07T05:01:43;9.10;99.90
29713;DHT22;16623;53.632;10.016;2023-05-07T05:04:09;9.10;99.90
29713;DHT22;16623;53.632;10.016;2023-05-07T05:06:35;9.10;99.90
29713;DHT22;16623;53.632;10.016;2023-05-07T05:09:01;9.10;99.90
29713;DHT22;16623;53.632;10.016;2023-05-07T05:11:26;9.10;99.90
29713;DHT22;16623;53.632;10.016;2023-05-07T05:13:51;9.10;99.90
29713;DHT22;16623;53.632;10.016;2023-05-07T05:16:17;9.10;99.90
29713;DHT22;16623;53.632;10.016;2023-05-07T05:18:43;9.20;99.90
29713;DHT22;16623;53.632;10.016;2023-05-07T05:21:08;9.20;99.90
29713;DHT22;16623;53.632;10.016;2023-05-07T05:23:34;9.20;99.90
29713;DHT22;16623;53.632;10.016;2023-05-07T05:25:59;9.20;99.90
29713;DHT22;16623;53.632;10.016;2023-05-07T05:28:25;9.30;99.90
29713;DHT22;16623;53.632;10.016;2023-05-07T05:30:50;9.30;99.90
29713;DHT22;16623;53.632;10.016;2023-05-07T05:33:16;9.30;99.90
29713;DHT22;16623;53.632;10.016;2023-05-07T05:35:42;9.40;99.90
29713;DHT22;16623;53.632;10.016;2023-05-07T05:38:07;9.40;99.90
29713;DHT22;16623;53.632;10.016;2023-05-07T05:40:33;9.40;99.90
29713;DHT22;16623;53.632;10.016;2023-05-07T05:42:59;9.40;99.90
29713;DHT22;16623;53.632;10.016;2023-05-07T05:45:25;9.40;99.90
29713;DHT22;16623;53.632;10.016;2023-05-07T05:47:50;9.40;99.90
29713;DHT22;16623;53.632;10.016;2023-05-07T05:50:16;9.40;99.90
29713;DHT22;16623;53.632;10.016;2023-05-07T05:52:41;9.40;99.90
29713;DHT22;16623;53.632;10.016;2023-05-07T05:55:07;9.40;99.90
29713;DHT22;16623;53.632;10.016;2023-05-07T05:57:33;9.50;99.90
29713;DHT22;16623;53.632;10.016;2023-05-07T06:00:00;9.50;99.90
29713;DHT22;16623;53.632;10.016;2023-05-07T06:02:26;9.60;99.90
29713;DHT22;16623;53.632;10.016;2023-05-07T06:04:52;9.50;99.90
29713;DHT22;16623;53.632;10.016;2023-05-07T06:07:18;9.50;99.90
29713;DHT22;16623;53.632;10.016;2023-05-07T06:09:43;9.60;99.90
29713;DHT22;16623;53.632;10.016;2023-05-07T06:12:09;9.70;99.90
29713;DHT22;16623;53.632;10.016;2023-05-07T06:14:35;9.60;99.90
29713;DHT22;16623;53.632;10.016;2023-05-07T06:17:00;9.70;99.90
29713;DHT22;16623;53.632;10.016;2023-05-07T06:19:26;9.60;99.90
29713;DHT22;16623;53.632;10.016;2023-05-07T06:21:53;9.70;99.90
29713;DHT22;16623;53.632;10.016;2023-05-07T06:24:19;9.70;99.90
29713;DHT22;16623;53.632;10.016;2023-05-07T06:26:44;9.70;99.90
29713;DHT22;16623;53.632;10.016;2023-05-07T06:29:10;9.70;99.90
29713;DHT22;16623;53.632;10.016;2023-05-07T06:31:35;9.70;99.90
29713;DHT22;16623;53.632;10.016;2023-05-07T06:34:01;9.70;99.90
29713;DHT22;16623;53.632;10.016;2023-05-07T06:36:28;9.70;99.90
29713;DHT22;16623;53.632;10.016;2023-05-07T06:38:53;9.70;99.90
29713;DHT22;16623;53.632;10.016;2023-05-07T06:41:19;9.70;99.90
29713;DHT22;16623;53.632;10.016;2023-05-07T06:43:45;9.90;99.90
29713;DHT22;16623;53.632;10.016;2023-05-07T06:46:11;9.90;99.90
29713;DHT22;16623;53.632;10.016;2023-05-07T06:48:36;9.90;99.90
29713;DHT22;16623;53.632;10.016;2023-05-07T06:51:02;9.90;99.90
29713;DHT22;16623;53.632;10.016;2023-05-07T06:53:28;9.80;99.90
29713;DHT22;16623;53.632;10.016;2023-05-07T06:55:54;9.90;99.90
29713;DHT22;16623;53.632;10.016;2023-05-07T06:58:20;10.30;99.90
29713;DHT22;16623;53.632;10.016;2023-05-07T07:00:45;9.90;99.90
29713;DHT22;16623;53.632;10.016;2023-05-07T07:03:11;10.00;99.90
29713;DHT22;16623;53.632;10.016;2023-05-07T07:05:36;10.10;99.90
29713;DHT22;16623;53.632;10.016;2023-05-07T07:08:02;10.00;99.90
29713;DHT22;16623;53.632;10.016;2023-05-07T07:10:27;10.10;99.90
29713;DHT22;16623;53.632;10.016;2023-05-07T07:12:53;10.10;99.90
29713;DHT22;16623;53.632;10.016;2023-05-07T07:15:19;10.20;99.90
29713;DHT22;16623;53.632;10.016;2023-05-07T07:17:46;10.20;99.90
29713;DHT22;16623;53.632;10.016;2023-05-07T07:20:11;10.20;99.90
29713;DHT22;16623;53.632;10.016;2023-05-07T07:22:37;10.20;99.90
29713;DHT22;16623;53.632;10.016;2023-05-07T07:25:03;10.60;99.90
29713;DHT22;16623;53.632;10.016;2023-05-07T07:27:28;10.40;99.90
29713;DHT22;16623;53.632;10.016;2023-05-07T07:29:54;10.40;99.90
29713;DHT22;16623;53.632;10.016;2023-05-07T07:32:19;10.60;99.90
29713;DHT22;16623;53.632;10.016;2023-05-07T07:34:45;10.60;99.90
29713;DHT22;16623;53.632;10.016;2023-05-07T07:37:10;10.60;99.90
29713;DHT22;16623;53.632;10.016;2023-05-07T07:39:36;10.60;99.90
29713;DHT22;16623;53.632;10.016;2023-05-07T07:42:03;10.50;99.90
29713;DHT22;16623;53.632;10.016;2023-05-07T07:44:29;10.50;99.90
29713;DHT22;16623;53.632;10.016;2023-05-07T07:46:54;10.50;99.90
29713;DHT22;16623;53.632;10.016;2023-05-07T07:49:20;10.60;99.90
29713;DHT22;16623;53.632;10.016;2023-05-07T07:51:46;10.50;99.90
29713;DHT22;16623;53.632;10.016;2023-05-07T07:54:11;10.60;99.90
29713;DHT22;16623;53.632;10.016;2023-05-07T07:56:37;10.80;99.90
29713;DHT22;16623;53.632;10.016;2023-05-07T07:59:03;10.80;99.90
29713;DHT22;16623;53.632;10.016;2023-05-07T08:01:30;10.90;99.90
29713;DHT22;16623;53.632;10.016;2023-05-07T08:03:55;10.90;99.90
29713;DHT22;16623;53.632;10.016;2023-05-07T08:06:23;10.80;99.90
29713;DHT22;16623;53.632;10.016;2023-05-07T08:08:48;10.80;99.90
29713;DHT22;16623;53.632;10.016;2023-05-07T08:11:14;10.70;99.90
29713;DHT22;16623;53.632;10.016;2023-05-07T08:13:40;10.70;99.90
29713;DHT22;16623;53.632;10.016;2023-05-07T08:16:05;10.70;99.90
29713;DHT22;16623;53.632;10.016;2023-05-07T08:18:31;10.80;99.90
29713;DHT22;16623;53.632;10.016;2023-05-07T08:20:57;10.80;99.90
29713;DHT22;16623;53.632;10.016;2023-05-07T08:23:22;10.80;99.90
29713;DHT22;16623;53.632;10.016;2023-05-07T08:25:49;10.70;99.90
29713;DHT22;16623;53.632;10.016;2023-05-07T08:28:15;10.60;99.90
29713;DHT22;16623;53.632;10.016;2023-05-07T08:30:40;10.70;99.90
29713;DHT22;16623;53.632;10.016;2023-05-07T08:33:06;10.80;99.90
29713;DHT22;16623;53.632;10.016;2023-05-07T08:35:31;10.70;99.90
29713;DHT22;16623;53.632;10.016;2023-05-07T08:37:57;10.60;99.90
29713;DHT22;16623;53.632;10.016;2023-05-07T08:40:26;10.60;99.90
29713;DHT22;16623;53.632;10.016;2023-05-07T08:42:53;10.70;99.90
29713;DHT22;16623;53.632;10.016;2023-05-07T08:45:20;10.60;99.90
29713;DHT22;16623;53.632;10.016;2023-05-07T08:47:58;10.60;99.90
29713;DHT22;16623;53.632;10.016;2023-05-07T08:50:24;10.70;99.90
29713;DHT22;16623;53.632;10.016;2023-05-07T08:52:50;10.80;99.90
29713;DHT22;16623;53.632;10.016;2023-05-07T08:55:16;10.90;99.90
29713;DHT22;16623;53.632;10.016;2023-05-07T08:57:42;10.80;99.90
29713;DHT22;16623;53.632;10.016;2023-05-07T09:00:08;11.00;99.90
29713;DHT22;16623;53.632;10.016;2023-05-07T09:02:37;11.10;99.90
29713;DHT22;16623;53.632;10.016;2023-05-07T09:05:03;11.20;99.90
29713;DHT22;16623;53.632;10.016;2023-05-07T09:07:30;11.30;99.90
29713;DHT22;16623;53.632;10.016;2023-05-07T09:09:56;11.30;99.90
29713;DHT22;16623;53.632;10.016;2023-05-07T09:12:28;11.30;99.90
29713;DHT22;16623;53.632;10.016;2023-05-07T09:14:54;11.40;99.90
29713;DHT22;16623;53.632;10.016;2023-05-07T09:17:20;11.30;99.90
29713;DHT22;16623;53.632;10.016;2023-05-07T09:19:45;11.30;99.90
29713;DHT22;16623;53.632;10.016;2023-05-07T09:22:11;11.20;99.90
29713;DHT22;16623;53.632;10.016;2023-05-07T09:24:37;11.30;99.90
29713;DHT22;16623;53.632;10.016;2023-05-07T09:27:07;11.40;99.90
29713;DHT22;16623;53.632;10.016;2023-05-07T09:29:34;11.50;99.90
29713;DHT22;16623;53.632;10.016;2023-05-07T09:32:03;11.70;99.90
29713;DHT22;16623;53.632;10.016;2023-05-07T09:34:30;11.70;99.90
29713;DHT22;16623;53.632;10.016;2023-05-07T09:36:57;11.80;99.90
29713;DHT22;16623;53.632;10.016;2023-05-07T09:39:24;11.90;99.90
29713;DHT22;16623;53.632;10.016;2023-05-07T09:41:50;11.90;99.90
29713;DHT22;16623;53.632;10.016;2023-05-07T09:44:20;12.00;99.90
29713;DHT22;16623;53.632;10.016;2023-05-07T09:46:47;12.10;99.90
29713;DHT22;16623;53.632;10.016;2023-05-07T09:49:23;12.00;99.90
29713;DHT22;16623;53.632;10.016;2023-05-07T09:51:50;12.00;99.90
29713;DHT22;16623;53.632;10.016;2023-05-07T09:54:17;12.10;99.90
29713;DHT22;16623;53.632;10.016;2023-05-07T09:56:46;12.00;99.90
29713;DHT22;16623;53.632;10.016;2023-05-07T09:59:14;12.10;99.90
29713;DHT22;16623;53.632;10.016;2023-05-07T10:01:41;12.00;99.90
29713;DHT22;16623;53.632;10.016;2023-05-07T10:04:08;12.10;99.90
29713;DHT22;16623;53.632;10.016;2023-05-07T10:06:34;12.30;99.90
29713;DHT22;16623;53.632;10.016;2023-05-07T10:09:01;12.50;99.90
29713;DHT22;16623;53.632;10.016;2023-05-07T10:11:28;12.60;99.90
29713;DHT22;16623;53.632;10.016;2023-05-07T10:13:53;12.70;99.90
29713;DHT22;16623;53.632;10.016;2023-05-07T10:16:20;12.40;99.90
29713;DHT22;16623;53.632;10.016;2023-05-07T10:18:47;12.40;99.90
29713;DHT22;16623;53.632;10.016;2023-05-07T10:21:22;12.50;99.90
29713;DHT22;16623;53.632;10.016;2023-05-07T10:24:31;12.50;99.90
29713;DHT22;16623;53.632;10.016;2023-05-07T10:26:51;12.60;99.90
29713;DHT22;16623;53.632;10.016;2023-05-07T10:34:24;12.20;99.90
29713;DHT22;16623;53.632;10.016;2023-05-07T10:36:52;12.30;99.90
29713;DHT22;16623;53.632;10.016;2023-05-07T10:39:19;12.40;99.90
29713;DHT22;16623;53.632;10.016;2023-05-07T10:41:45;12.40;99.90
29713;DHT22;16623;53.632;10.016;2023-05-07T10:44:11;12.30;99.90
29713;DHT22;16623;53.632;10.016;2023-05-07T10:46:37;12.20;99.90
29713;DHT22;16623;53.632;10.016;2023-05-07T10:51:30;12.30;99.90
29713;DHT22;16623;53.632;10.016;2023-05-07T10:56:38;12.50;99.90
29713;DHT22;16623;53.632;10.016;2023-05-07T10:59:29;12.70;99.90
29713;DHT22;16623;53.632;10.016;2023-05-07T11:02:03;12.70;99.90
29713;DHT22;16623;53.632;10.016;2023-05-07T11:04:30;12.60;99.90
29713;DHT22;16623;53.632;10.016;2023-05-07T11:09:55;12.70;99.90
29713;DHT22;16623;53.632;10.016;2023-05-07T11:15:04;12.70;99.90
29713;DHT22;16623;53.632;10.016;2023-05-07T11:17:31;12.70;99.90
29713;DHT22;16623;53.632;10.016;2023-05-07T11:20:00;12.60;99.90
29713;DHT22;16623;53.632;10.016;2023-05-07T11:25:06;12.90;99.90
29713;DHT22;16623;53.632;10.016;2023-05-07T11:27:32;13.00;99.90
29713;DHT22;16623;53.632;10.016;2023-05-07T11:29:58;13.00;99.90
29713;DHT22;16623;53.632;10.016;2023-05-07T11:32:28;13.10;99.90
29713;DHT22;16623;53.632;10.016;2023-05-07T11:34:55;13.10;99.90
29713;DHT22;16623;53.632;10.016;2023-05-07T11:37:22;13.10;99.90
29713;DHT22;16623;53.632;10.016;2023-05-07T11:39:48;13.20;99.90
29713;DHT22;16623;53.632;10.016;2023-05-07T11:42:29;13.30;99.90
29713;DHT22;16623;53.632;10.016;2023-05-07T11:44:55;13.40;99.90
29713;DHT22;16623;53.632;10.016;2023-05-07T11:47:21;13.50;99.90
29713;DHT22;16623;53.632;10.016;2023-05-07T11:49:48;13.60;99.90
29713;DHT22;16623;53.632;10.016;2023-05-07T11:52:14;13.70;99.90
29713;DHT22;16623;53.632;10.016;2023-05-07T11:54:40;13.80;99.90
29713;DHT22;16623;53.632;10.016;2023-05-07T11:57:06;13.80;99.90
29713;DHT22;16623;53.632;10.016;2023-05-07T11:59:39;13.80;99.90
29713;DHT22;16623;53.632;10.016;2023-05-07T12:02:06;13.80;99.90
29713;DHT22;16623;53.632;10.016;2023-05-07T12:04:37;13.90;99.90
29713;DHT22;16623;53.632;10.016;2023-05-07T12:07:03;13.90;99.90
29713;DHT22;16623;53.632;10.016;2023-05-07T12:09:29;13.80;99.90
29713;DHT22;16623;53.632;10.016;2023-05-07T12:11:55;14.00;99.90
29713;DHT22;16623;53.632;10.016;2023-05-07T12:14:21;14.10;99.90
29713;DHT22;16623;53.632;10.016;2023-05-07T12:16:47;14.00;99.90
29713;DHT22;16623;53.632;10.016;2023-05-07T12:19:13;14.20;99.90
29713;DHT22;16623;53.632;10.016;2023-05-07T12:21:39;14.20;99.90
29713;DHT22;16623;53.632;10.016;2023-05-07T12:24:05;14.30;99.90
29713;DHT22;16623;53.632;10.016;2023-05-07T12:26:31;14.20;99.90
29713;DHT22;16623;53.632;10.016;2023-05-07T12:28:59;14.30;99.90
29713;DHT22;16623;53.632;10.016;2023-05-07T12:31:28;14.40;99.90
29713;DHT22;16623;53.632;10.016;2023-05-07T12:33:53;14.40;99.90
29713;DHT22;16623;53.632;10.016;2023-05-07T12:36:19;14.60;99.90
29713;DHT22;16623;53.632;10.016;2023-05-07T12:38:49;14.60;99.90
29713;DHT22;16623;53.632;10.016;2023-05-07T12:41:15;14.50;99.90
29713;DHT22;16623;53.632;10.016;2023-05-07T12:43:46;14.60;99.90
29713;DHT22;16623;53.632;10.016;2023-05-07T12:46:12;14.80;99.90
29713;DHT22;16623;53.632;10.016;2023-05-07T12:48:44;15.00;99.90
29713;DHT22;16623;53.632;10.016;2023-05-07T12:51:12;15.20;99.90
29713;DHT22;16623;53.632;10.016;2023-05-07T12:53:42;15.30;99.90
29713;DHT22;16623;53.632;10.016;2023-05-07T12:56:08;15.30;99.90
29713;DHT22;16623;53.632;10.016;2023-05-07T12:58:35;15.40;99.90
29713;DHT22;16623;53.632;10.016;2023-05-07T13:01:04;15.10;99.90
29713;DHT22;16623;53.632;10.016;2023-05-07T13:03:32;15.10;99.90
29713;DHT22;16623;53.632;10.016;2023-05-07T13:06:11;15.00;99.90
29713;DHT22;16623;53.632;10.016;2023-05-07T13:08:39;15.00;99.90
29713;DHT22;16623;53.632;10.016;2023-05-07T13:11:07;15.00;99.90
29713;DHT22;16623;53.632;10.016;2023-05-07T13:13:34;15.10;99.90
29713;DHT22;16623;53.632;10.016;2023-05-07T13:16:02;15.20;99.90
29713;DHT22;16623;53.632;10.016;2023-05-07T13:18:30;15.40;99.90
29713;DHT22;16623;53.632;10.016;2023-05-07T13:20:55;15.50;99.90
29713;DHT22;16623;53.632;10.016;2023-05-07T13:23:21;15.70;99.90
29713;DHT22;16623;53.632;10.016;2023-05-07T13:25:48;15.60;99.90
29713;DHT22;16623;53.632;10.016;2023-05-07T13:28:14;15.70;99.90
29713;DHT22;16623;53.632;10.016;2023-05-07T13:30:40;17.10;99.90
29713;DHT22;16623;53.632;10.016;2023-05-07T13:33:06;15.90;99.90
29713;DHT22;16623;53.632;10.016;2023-05-07T13:35:32;16.20;99.90
29713;DHT22;16623;53.632;10.016;2023-05-07T13:37:57;16.30;99.90
29713;DHT22;16623;53.632;10.016;2023-05-07T13:40:23;16.30;99.90
29713;DHT22;16623;53.632;10.016;2023-05-07T13:42:49;16.20;99.90
29713;DHT22;16623;53.632;10.016;2023-05-07T13:45:16;16.10;99.90
29713;DHT22;16623;53.632;10.016;2023-05-07T13:47:42;15.90;99.90
29713;DHT22;16623;53.632;10.016;2023-05-07T13:50:08;15.70;99.90
29713;DHT22;16623;53.632;10.016;2023-05-07T13:52:34;15.70;99.90
29713;DHT22;16623;53.632;10.016;2023-05-07T13:55:00;15.70;99.90
29713;DHT22;16623;53.632;10.016;2023-05-07T13:57:25;15.90;99.90
29713;DHT22;16623;53.632;10.016;2023-05-07T13:59:51;16.00;99.90
29713;DHT22;16623;53.632;10.016;2023-05-07T14:02:17;16.20;99.90
29713;DHT22;16623;53.632;10.016;2023-05-07T14:04:42;16.10;99.90
29713;DHT22;16623;53.632;10.016;2023-05-07T14:07:08;16.10;99.90
29713;DHT22;16623;53.632;10.016;2023-05-07T14:09:33;16.40;99.90
29713;DHT22;16623;53.632;10.016;2023-05-07T14:11:59;16.50;99.90
29713;DHT22;16623;53.632;10.016;2023-05-07T14:14:25;16.50;99.90
29713;DHT22;16623;53.632;10.016;2023-05-07T14:16:50;16.30;99.90
29713;DHT22;16623;53.632;10.016;2023-05-07T14:19:16;16.10;99.90
29713;DHT22;16623;53.632;10.016;2023-05-07T14:21:42;16.10;99.90
29713;DHT22;16623;53.632;10.016;2023-05-07T14:24:07;16.10;99.90
29713;DHT22;16623;53.632;10.016;2023-05-07T14:26:36;16.10;99.90
29713;DHT22;16623;53.632;10.016;2023-05-07T14:29:02;16.00;99.90
29713;DHT22;16623;53.632;10.016;2023-05-07T14:31:28;15.90;99.90
29713;DHT22;16623;53.632;10.016;2023-05-07T14:33:54;15.80;99.90
29713;DHT22;16623;53.632;10.016;2023-05-07T14:36:20;15.50;99.90
29713;DHT22;16623;53.632;10.016;2023-05-07T14:38:46;15.40;99.90
29713;DHT22;16623;53.632;10.016;2023-05-07T14:41:12;15.40;99.90
29713;DHT22;16623;53.632;10.016;2023-05-07T14:43:37;15.30;99.90
29713;DHT22;16623;53.632;10.016;2023-05-07T14:46:03;15.50;99.90
29713;DHT22;16623;53.632;10.016;2023-05-07T14:48:29;15.60;99.90
29713;DHT22;16623;53.632;10.016;2023-05-07T14:50:54;15.70;99.90
29713;DHT22;16623;53.632;10.016;2023-05-07T14:53:20;16.00;99.90
29713;DHT22;16623;53.632;10.016;2023-05-07T14:55:47;16.00;99.90
29713;DHT22;16623;53.632;10.016;2023-05-07T15:00:39;16.50;99.90
29713;DHT22;16623;53.632;10.016;2023-05-07T15:03:07;16.40;99.90
29713;DHT22;16623;53.632;10.016;2023-05-07T15:05:33;16.60;99.90
29713;DHT22;16623;53.632;10.016;2023-05-07T15:07:59;16.60;99.90
29713;DHT22;16623;53.632;10.016;2023-05-07T15:10:25;16.70;99.90
29713;DHT22;16623;53.632;10.016;2023-05-07T15:12:50;16.60;99.90
29713;DHT22;16623;53.632;10.016;2023-05-07T15:15:16;16.60;99.90
29713;DHT22;16623;53.632;10.016;2023-05-07T15:17:42;16.70;99.90
29713;DHT22;16623;53.632;10.016;2023-05-07T15:20:07;16.70;99.90
29713;DHT22;16623;53.632;10.016;2023-05-07T15:22:33;16.70;99.90
29713;DHT22;16623;53.632;10.016;2023-05-07T15:25:01;16.50;99.90
29713;DHT22;16623;53.632;10.016;2023-05-07T15:27:26;16.30;99.90
29713;DHT22;16623;53.632;10.016;2023-05-07T15:29:52;16.20;99.90
29713;DHT22;16623;53.632;10.016;2023-05-07T15:32:18;16.00;99.90
29713;DHT22;16623;53.632;10.016;2023-05-07T15:34:44;16.00;99.90
29713;DHT22;16623;53.632;10.016;2023-05-07T15:37:09;16.00;99.90
29713;DHT22;16623;53.632;10.016;2023-05-07T15:39:35;16.10;99.90